createdAt,value
2023-12-16T00:01:12.695Z,102665.13
2023-12-16T00:06:06.086Z,102672.81
2023-12-16T00:11:00.591Z,102678.00
2023-12-16T00:15:54.041Z,102677.97
2023-12-16T00:20:49.079Z,102684.03
2023-12-16T00:25:42.131Z,102691.78
2023-12-16T00:30:35.206Z,102702.09
2023-12-16T00:35:28.365Z,102704.69
2023-12-16T00:40:22.800Z,102718.44
2023-12-16T00:45:18.033Z,102715.81
2023-12-16T00:50:12.436Z,102730.44
2023-12-16T00:55:05.644Z,102728.72
2023-12-16T01:00:00.165Z,102727.84
2023-12-16T01:04:53.614Z,102739.00
2023-12-16T01:09:46.782Z,102739.00
2023-12-16T01:14:39.991Z,102739.00
2023-12-16T01:19:34.427Z,102758.81
2023-12-16T01:24:27.514Z,102730.44
2023-12-16T01:29:20.438Z,102735.59
2023-12-16T01:34:13.615Z,102733.03
2023-12-16T01:39:08.058Z,102743.38
2023-12-16T01:44:01.112Z,102746.84
2023-12-16T01:48:54.253Z,102753.72
2023-12-16T01:53:48.197Z,102758.84
2023-12-16T01:58:43.651Z,102756.28
2023-12-16T02:03:39.933Z,102758.00
2023-12-16T02:08:32.815Z,102763.22
2023-12-16T02:13:25.964Z,102753.72
2023-12-16T02:18:20.560Z,102767.50
2023-12-16T02:23:16.556Z,102779.53
2023-12-16T02:28:09.611Z,102776.97
2023-12-16T02:33:02.651Z,102783.88
2023-12-16T02:37:55.626Z,102785.63
2023-12-16T02:42:49.977Z,102792.50
2023-12-16T02:47:44.196Z,102796.81
2023-12-16T02:52:37.173Z,102809.72
2023-12-16T02:57:30.082Z,102813.13
2023-12-16T03:02:26.990Z,102821.72
2023-12-16T03:07:19.982Z,102835.50
2023-12-16T03:12:13.005Z,102841.50
2023-12-16T03:17:06.220Z,102848.41
2023-12-16T03:22:00.517Z,102852.69
2023-12-16T03:26:53.482Z,102857.88
2023-12-16T03:31:46.387Z,102851.00
2023-12-16T03:36:39.349Z,102862.16
2023-12-16T03:41:35.288Z,102871.63
2023-12-16T03:46:28.373Z,102862.16
2023-12-16T03:51:25.364Z,102867.31
2023-12-16T03:56:18.393Z,102869.03
2023-12-16T04:01:15.079Z,102877.66
2023-12-16T04:06:11.770Z,102884.53
2023-12-16T04:11:04.767Z,102887.09
2023-12-16T04:15:57.730Z,102896.56
2023-12-16T04:20:51.984Z,102900.88
2023-12-16T04:25:44.906Z,102900.88
2023-12-16T04:30:37.941Z,102905.19
2023-12-16T04:35:30.910Z,102909.50
2023-12-16T04:40:25.275Z,102918.06
2023-12-16T04:45:18.230Z,102910.34
2023-12-16T04:50:11.816Z,102918.06
2023-12-16T04:55:05.250Z,102931.00
2023-12-16T05:00:15.838Z,102938.72
2023-12-16T05:05:12.597Z,102937.00
2023-12-16T05:10:11.260Z,102957.63
2023-12-16T05:15:04.875Z,102962.78
2023-12-16T05:19:57.918Z,102955.88
2023-12-16T05:24:57.949Z,102973.94
2023-12-16T05:29:51.216Z,102975.69
2023-12-16T05:34:44.248Z,102974.81
2023-12-16T05:39:37.186Z,102990.28
2023-12-16T05:44:31.639Z,102987.69
2023-12-16T05:49:24.639Z,102997.16
2023-12-16T05:54:17.596Z,103012.63
2023-12-16T05:59:10.603Z,103021.22
2023-12-16T06:04:05.071Z,103022.09
2023-12-16T06:08:57.954Z,103017.81
2023-12-16T06:13:52.758Z,103025.53
2023-12-16T06:18:45.969Z,103020.41
2023-12-16T06:23:40.561Z,103018.66
2023-12-16T06:28:33.580Z,103035.88
2023-12-16T06:33:26.676Z,103062.56
2023-12-16T06:38:21.611Z,103078.06
2023-12-16T06:43:16.235Z,103093.56
2023-12-16T06:48:11.207Z,103113.34
2023-12-16T06:53:04.208Z,103121.13
2023-12-16T06:57:57.172Z,103132.28
2023-12-16T07:02:51.604Z,103114.25
2023-12-16T07:07:44.985Z,103131.44
2023-12-16T07:12:37.979Z,103146.06
2023-12-16T07:17:31.225Z,103142.59
2023-12-16T07:22:30.321Z,103150.31
2023-12-16T07:27:24.159Z,103143.47
2023-12-16T07:32:17.153Z,103147.75
2023-12-16T07:37:12.754Z,103145.16
2023-12-16T07:42:07.451Z,103161.53
2023-12-16T07:47:01.552Z,103151.19
2023-12-16T07:51:56.063Z,103162.34
2023-12-16T07:56:48.984Z,103171.81
2023-12-16T08:01:43.531Z,103174.38
2023-12-16T08:06:36.557Z,103170.09
2023-12-16T08:11:29.606Z,103177.81
2023-12-16T08:16:22.706Z,103180.41
2023-12-16T08:21:27.567Z,103178.66
2023-12-16T08:26:23.133Z,103193.28
2023-12-16T08:31:18.487Z,103187.25
2023-12-16T08:36:14.450Z,103187.25
2023-12-16T08:41:16.923Z,103192.41
2023-12-16T08:46:09.945Z,103193.25
2023-12-16T08:51:03.124Z,103191.53
2023-12-16T08:55:56.190Z,103186.38
2023-12-16T09:00:50.707Z,103189.81
2023-12-16T09:05:44.043Z,103182.00
2023-12-16T09:10:37.336Z,103176.84
2023-12-16T09:15:30.383Z,103180.25
2023-12-16T09:20:24.726Z,103178.47
2023-12-16T09:25:17.966Z,103162.91
2023-12-16T09:30:11.733Z,103153.34
2023-12-16T09:35:04.936Z,103155.84
2023-12-16T09:39:59.377Z,103151.53
2023-12-16T09:44:55.640Z,103151.56
2023-12-16T09:49:50.793Z,103155.00
2023-12-16T09:54:43.797Z,103146.44
2023-12-16T09:59:40.230Z,103149.91
2023-12-16T10:04:34.318Z,103143.00
2023-12-16T10:09:27.412Z,103140.44
2023-12-16T10:14:21.482Z,103143.88
2023-12-16T10:19:15.970Z,103142.13
2023-12-16T10:24:12.749Z,103154.97
2023-12-16T10:29:05.944Z,103150.69
2023-12-16T10:34:04.384Z,103143.75
2023-12-16T10:38:59.006Z,103148.13
2023-12-16T10:43:54.305Z,103144.69
2023-12-16T10:48:49.477Z,103145.56
2023-12-16T10:53:45.546Z,103149.00
2023-12-16T10:58:44.939Z,103145.53
2023-12-16T11:03:44.452Z,103145.53
2023-12-16T11:08:38.103Z,103146.41
2023-12-16T11:13:31.532Z,103144.66
2023-12-16T11:18:28.110Z,103167.06
2023-12-16T11:23:21.664Z,103164.44
2023-12-16T11:28:15.789Z,103176.50
2023-12-16T11:33:09.118Z,103181.66
2023-12-16T11:38:06.157Z,103182.53
2023-12-16T11:43:04.185Z,103184.28
2023-12-16T11:47:57.715Z,103180.00
2023-12-16T11:52:52.837Z,103169.66
2023-12-16T11:57:56.508Z,103166.22
2023-12-16T12:02:52.450Z,103166.22
2023-12-16T12:07:45.610Z,103168.81
2023-12-16T12:12:39.248Z,103161.03
2023-12-16T12:17:34.029Z,103157.59
2023-12-16T12:22:27.411Z,103162.75
2023-12-16T12:27:20.571Z,103173.94
2023-12-16T12:32:15.860Z,103174.78
2023-12-16T12:37:10.301Z,103178.19
2023-12-16T12:42:04.314Z,103173.84
2023-12-16T12:46:57.471Z,103173.81
2023-12-16T12:51:51.088Z,103175.53
2023-12-16T12:56:46.808Z,103169.53
2023-12-16T13:01:40.300Z,103173.88
2023-12-16T13:06:43.156Z,103178.19
2023-12-16T13:11:39.276Z,103185.94
2023-12-16T13:16:36.971Z,103187.69
2023-12-16T13:21:30.076Z,103198.88
2023-12-16T13:26:23.029Z,103211.00
2023-12-16T13:31:16.080Z,103217.91
2023-12-16T13:36:33.037Z,103214.47
2023-12-16T13:41:24.526Z,103219.66
2023-12-16T13:46:17.455Z,103217.97
2023-12-16T13:51:11.907Z,103223.97
2023-12-16T13:56:05.350Z,103242.06
2023-12-16T14:00:59.472Z,103238.66
2023-12-16T14:05:52.698Z,103240.38
2023-12-16T14:10:48.885Z,103246.44
2023-12-16T14:15:41.901Z,103252.50
2023-12-16T14:20:35.223Z,103246.47
2023-12-16T14:25:28.362Z,103246.47
2023-12-16T14:30:24.700Z,103252.53
2023-12-16T14:35:18.001Z,103253.41
2023-12-16T14:40:11.702Z,103269.78
2023-12-16T14:45:05.252Z,103274.94
2023-12-16T14:50:00.096Z,103276.66
2023-12-16T14:54:53.352Z,103293.03
2023-12-16T14:59:46.587Z,103295.63
2023-12-16T15:04:42.248Z,103289.59
2023-12-16T15:09:37.972Z,103287.00
2023-12-16T15:14:31.443Z,103305.94
2023-12-16T15:19:30.002Z,103304.22
2023-12-16T15:24:23.655Z,103309.41
2023-12-16T15:29:18.727Z,103319.72
2023-12-16T15:34:13.868Z,103312.84
2023-12-16T15:39:15.728Z,103318.88
2023-12-16T15:44:10.217Z,103335.19
2023-12-16T15:49:19.229Z,103342.09
2023-12-16T15:54:15.400Z,103355.84
2023-12-16T15:59:11.718Z,103362.75
2023-12-16T16:04:06.425Z,103367.03
2023-12-16T16:09:02.168Z,103371.34
2023-12-16T16:13:58.782Z,103376.50
2023-12-16T16:18:52.256Z,103380.81
2023-12-16T16:23:45.508Z,103385.13
2023-12-16T16:28:40.141Z,103385.97
2023-12-16T16:33:33.424Z,103394.56
2023-12-16T16:38:26.817Z,103385.97
2023-12-16T16:43:19.770Z,103384.25
2023-12-16T16:48:14.364Z,103385.97
2023-12-16T16:53:07.477Z,103387.66
2023-12-16T16:58:00.481Z,103388.53
2023-12-16T17:03:02.273Z,103398.88
2023-12-16T17:08:05.793Z,103391.13
2023-12-16T17:13:20.862Z,103391.94
2023-12-16T17:18:15.532Z,103392.81
2023-12-16T17:23:12.612Z,103402.28
2023-12-16T17:28:05.753Z,103397.94
2023-12-16T17:32:58.773Z,103409.97
2023-12-16T17:37:52.618Z,103413.38
2023-12-16T17:42:46.944Z,103420.25
2023-12-16T17:47:40.178Z,103407.31
2023-12-16T17:52:33.424Z,103415.88
2023-12-16T17:57:26.806Z,103411.53
2023-12-16T18:02:21.435Z,103409.75
2023-12-16T18:07:14.477Z,103414.00
2023-12-16T18:12:07.881Z,103414.78
2023-12-16T18:17:00.809Z,103422.47
2023-12-16T18:21:55.649Z,103405.25
2023-12-16T18:26:48.965Z,103407.78
2023-12-16T18:31:42.106Z,103415.50
2023-12-16T18:36:37.224Z,103414.63
2023-12-16T18:41:31.761Z,103423.25
2023-12-16T18:46:30.603Z,103424.97
2023-12-16T18:51:24.576Z,103418.97
2023-12-16T18:56:18.008Z,103431.03
2023-12-16T19:01:14.057Z,103429.31
2023-12-16T19:06:10.625Z,103430.16
2023-12-16T19:11:03.642Z,103434.50
2023-12-16T19:15:56.902Z,103434.50
2023-12-16T19:20:53.736Z,103430.22
2023-12-16T19:25:46.804Z,103437.09
2023-12-16T19:30:39.855Z,103440.50
2023-12-16T19:35:32.843Z,103456.84
2023-12-16T19:40:29.670Z,103457.69
2023-12-16T19:45:22.761Z,103476.56
2023-12-16T19:50:17.769Z,103468.84
2023-12-16T19:55:11.196Z,103464.56
2023-12-16T20:00:06.089Z,103475.72
2023-12-16T20:05:05.945Z,103478.34
2023-12-16T20:09:59.118Z,103477.47
2023-12-16T20:14:52.363Z,103484.34
2023-12-16T20:19:48.083Z,103486.06
2023-12-16T20:24:41.166Z,103495.50
2023-12-16T20:29:34.282Z,103497.22
2023-12-16T20:34:27.372Z,103494.66
2023-12-16T20:39:39.289Z,103498.09
2023-12-16T20:44:32.364Z,103492.06
2023-12-16T20:49:25.456Z,103494.63
2023-12-16T20:54:18.573Z,103503.16
2023-12-16T20:59:15.984Z,103498.81
2023-12-16T21:04:10.321Z,103502.19
2023-12-16T21:09:05.699Z,103509.88
2023-12-16T21:13:58.778Z,103516.63
2023-12-16T21:18:53.339Z,103512.25
2023-12-16T21:23:50.030Z,103512.13
2023-12-16T21:28:43.039Z,103526.59
2023-12-16T21:33:50.882Z,103526.47
2023-12-16T21:38:45.475Z,103533.25
2023-12-16T21:43:38.415Z,103534.00
2023-12-16T21:48:35.807Z,103528.78
2023-12-16T21:53:28.861Z,103526.97
2023-12-16T21:58:25.924Z,103534.69
2023-12-16T22:03:19.102Z,103548.41
2023-12-16T22:08:12.063Z,103538.88
2023-12-16T22:13:05.356Z,103537.97
2023-12-16T22:17:59.796Z,103541.34
2023-12-16T22:22:52.988Z,103542.19
2023-12-16T22:27:47.475Z,103556.69
2023-12-16T22:32:41.333Z,103558.41
2023-12-16T22:37:35.932Z,103545.53
2023-12-16T22:42:28.941Z,103552.34
2023-12-16T22:47:22.099Z,103544.59
2023-12-16T22:52:15.410Z,103552.31
2023-12-16T22:57:12.884Z,103547.19
2023-12-16T23:02:05.954Z,103545.47
2023-12-16T23:06:58.855Z,103543.72
2023-12-16T23:11:51.860Z,103545.47
2023-12-16T23:16:46.218Z,103548.00
2023-12-16T23:21:45.365Z,103553.09
2023-12-16T23:26:38.386Z,103553.09
2023-12-16T23:31:31.410Z,103559.16
2023-12-16T23:36:25.786Z,103559.16
2023-12-16T23:41:19.518Z,103561.72
2023-12-16T23:46:13.551Z,103553.16
2023-12-16T23:51:06.737Z,103564.28
2023-12-16T23:56:01.080Z,103563.44
